Time;durP1;ratioP1;P1;durP2;ratioP2;P2;SDS_P1;SDS_P2;PMS_P1;PMS_P2;Temp;Humidity;BMP_temperature;BMP_pressure;BME280_temperature;BME280_humidity;BME280_pressure;Samples;Min_cycle;Max_cycle;Signal;HPM_P1;HPM_P2
2022/07/08 00:00:38;;;;;;;1.10;0.57;;;21.30;66.40;;;;;;5112261;28;20051;-77
2022/07/08 00:03:04;;;;;;;2.05;0.93;;;21.20;66.50;;;;;;5112431;28;20028;-77
2022/07/08 00:05:30;;;;;;;2.05;0.50;;;21.20;66.20;;;;;;5112418;28;20102;-78
2022/07/08 00:07:56;;;;;;;2.90;0.70;;;21.20;66.50;;;;;;5112720;28;20382;-77
2022/07/08 00:10:22;;;;;;;4.93;0.70;;;21.20;66.00;;;;;;5112490;28;20044;-78
2022/07/08 00:12:48;;;;;;;1.98;0.80;;;21.20;66.40;;;;;;5112782;28;20027;-77
2022/07/08 00:15:14;;;;;;;1.13;0.68;;;21.30;67.10;;;;;;5112400;28;20096;-77
2022/07/08 00:17:39;;;;;;;2.60;0.80;;;21.20;66.80;;;;;;5112009;28;20050;-77
2022/07/08 00:20:09;;;;;;;1.30;0.75;;;21.20;66.90;;;;;;5112232;28;20039;-77
2022/07/08 00:22:36;;;;;;;0.70;0.65;;;21.20;67.00;;;;;;5112266;28;20446;-77
2022/07/08 00:25:02;;;;;;;1.55;0.73;;;21.20;67.30;;;;;;5112381;28;20386;-77
2022/07/08 00:27:28;;;;;;;1.70;0.90;;;21.20;67.50;;;;;;5112025;28;20046;-77
2022/07/08 00:29:54;;;;;;;1.85;0.60;;;21.20;68.00;;;;;;5111780;28;20092;-79
2022/07/08 00:32:19;;;;;;;2.58;0.70;;;21.20;67.40;;;;;;5112019;28;20028;-77
2022/07/08 00:34:45;;;;;;;1.13;0.70;;;21.20;66.80;;;;;;5112222;28;20031;-77
2022/07/08 00:37:11;;;;;;;1.25;0.73;;;21.30;67.00;;;;;;5112382;28;20027;-77
2022/07/08 00:39:37;;;;;;;6.47;0.70;;;21.20;67.40;;;;;;5111935;28;20035;-80
2022/07/08 00:42:04;;;;;;;1.98;0.75;;;21.10;67.70;;;;;;5112146;28;20081;-77
2022/07/08 00:44:29;;;;;;;2.13;1.00;;;21.10;68.10;;;;;;5111520;28;20401;-77
2022/07/08 00:46:56;;;;;;;1.20;0.70;;;21.00;68.20;;;;;;5111586;28;20046;-78
2022/07/08 00:49:22;;;;;;;2.35;0.70;;;21.00;68.60;;;;;;5111750;28;20027;-77
2022/07/08 00:51:49;;;;;;;1.95;0.73;;;20.90;68.50;;;;;;5111664;28;20401;-77
2022/07/08 00:54:18;;;;;;;1.15;0.73;;;20.90;68.30;;;;;;5111698;28;20102;-77
2022/07/08 00:56:44;;;;;;;0.95;0.73;;;21.00;68.50;;;;;;5113620;28;20114;-78
2022/07/08 00:59:10;;;;;;;3.97;1.60;;;20.90;68.60;;;;;;5112574;28;20536;-77
2022/07/08 01:01:37;;;;;;;3.33;0.60;;;21.00;68.60;;;;;;5112505;28;20043;-77
2022/07/08 01:04:03;;;;;;;1.08;0.77;;;20.90;68.20;;;;;;5113022;28;20028;-77
2022/07/08 01:06:29;;;;;;;1.08;0.70;;;20.90;68.30;;;;;;5115009;28;20040;-76
2022/07/08 01:08:55;;;;;;;3.40;0.80;;;20.90;69.10;;;;;;5115437;27;20095;-77
2022/07/08 01:11:21;;;;;;;1.58;0.68;;;20.80;69.40;;;;;;5115376;28;20050;-77
2022/07/08 01:13:47;;;;;;;1.08;0.80;;;20.80;69.40;;;;;;5114941;28;20105;-77
2022/07/08 01:16:13;;;;;;;1.48;0.82;;;20.80;70.30;;;;;;5114915;28;20036;-78
2022/07/08 01:18:40;;;;;;;1.10;0.70;;;20.70;70.70;;;;;;5115618;28;20057;-77
2022/07/08 01:21:06;;;;;;;2.47;1.02;;;20.70;70.50;;;;;;5115079;28;20034;-77
2022/07/08 01:23:32;;;;;;;2.40;0.70;;;20.70;71.00;;;;;;5114768;28;20032;-78
2022/07/08 01:25:59;;;;;;;1.52;0.70;;;20.70;71.00;;;;;;5114936;28;20629;-77
2022/07/08 01:28:25;;;;;;;1.23;0.65;;;20.70;70.30;;;;;;5114266;28;20032;-77
2022/07/08 01:30:51;;;;;;;0.73;0.60;;;20.70;70.40;;;;;;5114300;28;20561;-77
2022/07/08 01:33:17;;;;;;;3.33;0.60;;;20.70;70.60;;;;;;5114811;28;20114;-78
2022/07/08 01:35:43;;;;;;;2.17;0.88;;;20.70;70.80;;;;;;5114648;28;20031;-77
2022/07/08 01:38:08;;;;;;;2.55;0.77;;;20.60;70.80;;;;;;5114782;28;20058;-77
2022/07/08 01:40:34;;;;;;;1.73;0.80;;;20.50;70.80;;;;;;5114323;28;20483;-78
2022/07/08 01:43:00;;;;;;;0.60;0.60;;;20.50;70.90;;;;;;5114313;28;20049;-77
2022/07/08 01:45:25;;;;;;;2.08;0.77;;;20.50;71.20;;;;;;5114817;28;20118;-76
2022/07/08 01:47:51;;;;;;;1.52;0.85;;;20.40;72.00;;;;;;5114655;28;20474;-77
2022/07/08 01:50:17;;;;;;;2.38;0.85;;;20.40;72.00;;;;;;5114655;28;20043;-77
2022/07/08 01:52:43;;;;;;;3.55;0.60;;;20.40;71.30;;;;;;5114342;28;20052;-77
2022/07/08 01:55:08;;;;;;;1.23;0.80;;;20.40;71.30;;;;;;5114206;28;20043;-78
2022/07/08 01:57:34;;;;;;;0.60;0.60;;;20.40;70.90;;;;;;5114527;28;20028;-77
2022/07/08 02:00:01;;;;;;;0.95;0.40;;;20.40;70.10;;;;;;5114378;28;20039;-77
2022/07/08 02:02:26;;;;;;;1.85;0.60;;;20.30;70.20;;;;;;5114151;28;20105;-77
2022/07/08 02:04:52;;;;;;;1.42;0.70;;;20.30;70.30;;;;;;5114015;28;20487;-78
2022/07/08 02:07:18;;;;;;;1.38;0.60;;;20.20;70.30;;;;;;5113479;28;20438;-77
2022/07/08 02:09:44;;;;;;;4.38;0.80;;;20.30;70.40;;;;;;5114083;28;20047;-78
2022/07/08 02:12:19;;;;;;;3.88;0.70;;;20.30;70.50;;;;;;5114333;28;20032;-78
2022/07/08 02:14:49;;;;;;;1.30;0.60;;;20.20;70.20;;;;;;5114064;28;20035;-77
2022/07/08 02:17:16;;;;;;;1.55;0.60;;;20.20;69.50;;;;;;5113653;28;20446;-79
2022/07/08 02:19:42;;;;;;;2.20;0.80;;;20.10;69.90;;;;;;5114261;28;20050;-76
2022/07/08 02:22:09;;;;;;;2.80;0.70;;;20.20;70.10;;;;;;5113963;28;20036;-76
2022/07/08 02:24:35;;;;;;;1.52;0.60;;;20.10;70.10;;;;;;5113890;28;20040;-76
2022/07/08 02:27:01;;;;;;;2.08;0.63;;;20.10;70.30;;;;;;5113487;28;20040;-76
2022/07/08 02:29:27;;;;;;;0.75;0.60;;;20.10;70.80;;;;;;5113762;28;20453;-77
2022/07/08 02:31:52;;;;;;;0.88;0.55;;;20.10;71.10;;;;;;5114236;28;20074;-76
2022/07/08 02:34:18;;;;;;;1.83;0.80;;;20.10;71.10;;;;;;5113899;28;20043;-76
2022/07/08 02:36:44;;;;;;;3.85;0.80;;;20.00;70.80;;;;;;5113957;28;20036;-77
2022/07/08 02:39:12;;;;;;;3.13;0.70;;;20.00;71.70;;;;;;5113422;27;20035;-76
2022/07/08 02:41:38;;;;;;;4.65;0.75;;;20.00;71.90;;;;;;5113727;28;20032;-76
2022/07/08 02:44:05;;;;;;;4.18;0.80;;;20.00;71.20;;;;;;5113430;28;20370;-77
2022/07/08 02:46:31;;;;;;;3.28;0.80;;;20.00;71.10;;;;;;5113492;28;20071;-77
2022/07/08 02:48:57;;;;;;;3.10;0.70;;;20.00;70.70;;;;;;5113997;28;20055;-76
2022/07/08 02:51:22;;;;;;;2.72;0.80;;;20.00;71.50;;;;;;5112999;28;20042;-77
2022/07/08 02:53:48;;;;;;;2.55;1.10;;;20.10;71.60;;;;;;5114008;28;20034;-77
2022/07/08 02:56:14;;;;;;;1.23;0.75;;;20.00;71.00;;;;;;5113744;28;20057;-78
2022/07/08 02:58:39;;;;;;;1.20;0.70;;;20.10;70.90;;;;;;5113506;28;20020;-77
2022/07/08 03:01:05;;;;;;;1.55;0.80;;;20.10;71.00;;;;;;5113267;28;20039;-77
2022/07/08 03:03:31;;;;;;;0.82;0.47;;;20.00;70.60;;;;;;5113072;28;20412;-76
2022/07/08 03:05:56;;;;;;;1.83;0.50;;;20.10;70.20;;;;;;5113007;28;20474;-77
2022/07/08 03:08:22;;;;;;;2.25;0.70;;;20.00;70.60;;;;;;5113127;28;20086;-77
2022/07/08 03:10:49;;;;;;;0.90;0.70;;;20.00;71.20;;;;;;5113460;28;20047;-77
2022/07/08 03:13:15;;;;;;;9.13;0.82;;;19.90;71.00;;;;;;5112999;28;20504;-77
2022/07/08 03:15:41;;;;;;;1.48;0.60;;;19.90;70.80;;;;;;5112911;28;20039;-76
2022/07/08 03:18:07;;;;;;;2.10;1.00;;;19.80;70.60;;;;;;5112191;28;20043;-77
2022/07/08 03:20:33;;;;;;;2.47;0.52;;;19.80;71.50;;;;;;5113034;28;20487;-77
2022/07/08 03:23:00;;;;;;;0.63;0.60;;;19.80;71.10;;;;;;5113037;28;20499;-76
2022/07/08 03:25:25;;;;;;;2.78;1.13;;;19.80;71.30;;;;;;5112779;28;20038;-80
2022/07/08 03:27:51;;;;;;;1.23;0.80;;;19.80;70.90;;;;;;5112842;28;20409;-75
2022/07/08 03:30:17;;;;;;;2.85;0.73;;;19.80;71.80;;;;;;5112545;28;20043;-77
2022/07/08 03:32:43;;;;;;;1.38;0.70;;;19.80;71.30;;;;;;5112955;28;20422;-77
2022/07/08 03:35:09;;;;;;;2.42;0.80;;;19.80;71.40;;;;;;5112965;28;20036;-77
2022/07/08 03:37:35;;;;;;;2.13;0.70;;;19.80;71.70;;;;;;5112771;28;20024;-77
2022/07/08 03:41:19;;;;;;;1.63;0.70;;;19.80;71.60;;;;;;5112554;28;20481;-77
2022/07/08 03:42:47;;;;;;;0.57;0.57;;;19.80;71.40;;;;;;5112033;28;20066;-77
2022/07/08 03:45:12;;;;;;;2.95;0.80;;;19.80;71.50;;;;;;5112586;28;20454;-78
2022/07/08 03:47:38;;;;;;;3.22;0.85;;;19.70;71.80;;;;;;5112542;28;20055;-77
2022/07/08 03:50:04;;;;;;;0.95;0.70;;;19.70;72.10;;;;;;5112584;28;20046;-77
2022/07/08 03:52:30;;;;;;;0.90;0.70;;;19.70;72.60;;;;;;5112353;28;20035;-77
2022/07/08 03:54:55;;;;;;;3.45;0.80;;;19.80;73.00;;;;;;5112258;28;20036;-78
2022/07/08 03:57:21;;;;;;;2.55;0.70;;;19.80;72.70;;;;;;5112245;28;20085;-77
2022/07/08 03:59:47;;;;;;;2.38;0.80;;;19.70;72.30;;;;;;5112221;28;20035;-76
2022/07/08 04:02:12;;;;;;;0.95;0.73;;;19.70;73.10;;;;;;5111966;28;20111;-77
2022/07/08 04:04:38;;;;;;;2.85;0.80;;;19.70;73.60;;;;;;5112292;28;20040;-77
2022/07/08 04:07:04;;;;;;;1.33;0.80;;;19.70;73.90;;;;;;5112311;28;21022;-77
2022/07/08 04:09:30;;;;;;;2.20;0.93;;;19.80;74.30;;;;;;5112130;28;20032;-77
2022/07/08 04:11:55;;;;;;;4.53;2.08;;;19.70;74.00;;;;;;5111685;28;20496;-77
2022/07/08 04:14:21;;;;;;;2.85;0.73;;;19.70;74.60;;;;;;5112279;28;20019;-77
2022/07/08 04:16:46;;;;;;;0.90;0.77;;;19.70;74.50;;;;;;5111600;28;20130;-77
2022/07/08 04:19:12;;;;;;;2.97;1.08;;;19.70;74.40;;;;;;5111906;28;20432;-77
2022/07/08 04:21:38;;;;;;;1.67;1.00;;;19.60;74.70;;;;;;5112003;28;20061;-77
2022/07/08 04:24:04;;;;;;;4.35;0.93;;;19.60;75.30;;;;;;5112422;28;20028;-77
2022/07/08 04:26:31;;;;;;;3.83;1.00;;;19.60;75.50;;;;;;5112033;28;20489;-77
2022/07/08 04:29:00;;;;;;;4.93;1.20;;;19.60;75.50;;;;;;5112018;28;20089;-77
2022/07/08 04:31:27;;;;;;;3.45;1.00;;;19.70;75.90;;;;;;5116062;28;20113;-79
2022/07/08 04:33:53;;;;;;;5.80;1.20;;;19.60;75.80;;;;;;5116278;28;20393;-76
2022/07/08 04:36:23;;;;;;;4.55;0.82;;;19.60;76.00;;;;;;5116309;27;20096;-78
2022/07/08 04:38:49;;;;;;;3.30;0.80;;;19.70;76.10;;;;;;5115562;28;20063;-77
2022/07/08 04:41:15;;;;;;;1.38;0.90;;;19.70;76.00;;;;;;5115805;28;20088;-77
2022/07/08 04:43:43;;;;;;;3.08;0.90;;;19.70;76.00;;;;;;5115614;28;20024;-77
2022/07/08 04:46:10;;;;;;;1.23;0.82;;;19.70;75.30;;;;;;5115661;28;20024;-77
2022/07/08 04:48:36;;;;;;;4.50;0.63;;;19.70;75.10;;;;;;5115662;28;20031;-77
2022/07/08 04:51:01;;;;;;;2.72;0.80;;;19.80;75.10;;;;;;5115692;28;20040;-77
2022/07/08 04:53:27;;;;;;;1.52;0.90;;;19.80;74.90;;;;;;5115456;28;20036;-78
2022/07/08 04:55:53;;;;;;;1.50;0.80;;;19.90;74.80;;;;;;5115475;28;20032;-76
2022/07/08 04:58:19;;;;;;;2.58;1.00;;;19.90;75.00;;;;;;5114764;28;20032;-77
2022/07/08 05:00:44;;;;;;;2.50;0.90;;;20.00;74.40;;;;;;5115172;28;20039;-77
2022/07/08 05:03:10;;;;;;;1.70;0.90;;;20.00;74.00;;;;;;5115510;28;20111;-76
2022/07/08 05:05:36;;;;;;;4.10;0.80;;;20.00;73.90;;;;;;5115587;28;20058;-77
2022/07/08 05:08:02;;;;;;;2.03;1.10;;;20.10;73.20;;;;;;5115434;28;20031;-77
2022/07/08 05:10:28;;;;;;;2.00;0.70;;;20.10;72.70;;;;;;5114926;28;20097;-77
2022/07/08 05:12:55;;;;;;;4.30;0.88;;;20.10;72.30;;;;;;5115511;28;20101;-77
2022/07/08 05:15:21;;;;;;;3.15;0.70;;;20.20;72.10;;;;;;5114814;28;20027;-77
2022/07/08 05:17:47;;;;;;;1.10;0.68;;;20.20;72.00;;;;;;5114848;28;20378;-78
2022/07/08 05:20:14;;;;;;;2.55;0.98;;;20.30;71.60;;;;;;5115026;28;20028;-76
2022/07/08 05:22:40;;;;;;;2.90;0.82;;;20.30;71.40;;;;;;5114704;28;20043;-77
2022/07/08 05:25:07;;;;;;;4.53;1.00;;;20.30;71.30;;;;;;5113521;28;20027;-77
2022/07/08 05:27:33;;;;;;;2.50;0.82;;;20.30;71.10;;;;;;5114777;28;20035;-78
2022/07/08 05:29:59;;;;;;;2.45;0.95;;;20.40;71.20;;;;;;5113508;28;20207;-74
2022/07/08 05:32:25;;;;;;;3.38;0.80;;;20.40;71.30;;;;;;5113278;28;20038;-73
2022/07/08 05:34:51;;;;;;;2.83;0.80;;;20.50;71.20;;;;;;5113837;28;20040;-74
2022/07/08 05:37:17;;;;;;;2.20;0.98;;;20.50;70.90;;;;;;5113321;28;20522;-74
2022/07/08 05:39:43;;;;;;;1.95;0.82;;;20.60;70.80;;;;;;5114901;28;20282;-75
2022/07/08 05:42:10;;;;;;;3.25;0.80;;;20.60;70.90;;;;;;5111888;28;20340;-75
2022/07/08 05:44:36;;;;;;;3.33;0.88;;;20.60;69.70;;;;;;5112805;28;20485;-74
2022/07/08 05:47:09;;;;;;;2.65;1.63;;;20.70;69.20;;;;;;5112638;28;20049;-74
2022/07/08 05:49:36;;;;;;;2.70;0.93;;;20.70;68.90;;;;;;5112587;28;20169;-74
2022/07/08 05:52:06;;;;;;;5.53;1.10;;;20.70;68.40;;;;;;5112111;28;20051;-74
2022/07/08 05:54:32;;;;;;;2.88;1.10;;;20.80;68.30;;;;;;5112671;28;20097;-74
2022/07/08 05:56:59;;;;;;;2.03;0.98;;;20.80;68.00;;;;;;5112621;28;20054;-75
2022/07/08 05:59:26;;;;;;;1.95;0.77;;;20.80;67.70;;;;;;5113161;28;20031;-74
2022/07/08 06:01:51;;;;;;;2.22;0.90;;;20.90;66.70;;;;;;5114766;28;20035;-74
2022/07/08 06:04:17;;;;;;;1.60;1.00;;;21.00;66.60;;;;;;5114049;28;20042;-73
2022/07/08 06:06:43;;;;;;;1.25;0.90;;;21.00;66.40;;;;;;5113639;28;20032;-73
2022/07/08 06:09:09;;;;;;;1.92;0.90;;;21.10;66.60;;;;;;5112788;28;20080;-75
2022/07/08 06:11:34;;;;;;;1.15;0.73;;;21.20;66.00;;;;;;5112053;28;20135;-74
2022/07/08 06:14:00;;;;;;;1.30;0.90;;;21.20;66.00;;;;;;5112594;28;20434;-74
2022/07/08 06:16:26;;;;;;;3.05;0.95;;;21.20;66.40;;;;;;5112343;28;20063;-74
2022/07/08 06:18:52;;;;;;;1.58;0.80;;;21.20;66.60;;;;;;5112881;28;20024;-76
2022/07/08 06:21:18;;;;;;;1.35;0.82;;;21.20;66.60;;;;;;5113354;28;20121;-71
2022/07/08 06:23:44;;;;;;;2.80;1.00;;;21.20;66.40;;;;;;5114134;28;20070;-72
2022/07/08 06:26:11;;;;;;;2.85;0.90;;;21.30;65.80;;;;;;5111653;28;20546;-72
2022/07/08 06:28:36;;;;;;;1.88;0.90;;;21.40;66.00;;;;;;5113770;28;20040;-72
2022/07/08 06:31:02;;;;;;;1.30;0.80;;;21.50;65.50;;;;;;5114153;28;20036;-72
2022/07/08 06:33:28;;;;;;;1.48;0.90;;;21.50;65.20;;;;;;5113994;28;20038;-73
2022/07/08 06:35:54;;;;;;;1.88;1.05;;;21.60;65.00;;;;;;5114211;28;20028;-72
2022/07/08 06:38:20;;;;;;;1.80;1.20;;;21.60;64.90;;;;;;5112813;28;20085;-73
2022/07/08 06:40:45;;;;;;;1.95;0.90;;;21.60;65.20;;;;;;5113535;28;20069;-73
2022/07/08 06:43:11;;;;;;;3.72;0.80;;;21.70;65.20;;;;;;5112894;28;20032;-72
2022/07/08 06:45:37;;;;;;;1.00;0.90;;;21.70;64.20;;;;;;5113942;28;20111;-72
2022/07/08 06:48:03;;;;;;;1.30;0.70;;;21.70;64.00;;;;;;5113524;28;20036;-73
2022/07/08 06:50:30;;;;;;;5.35;0.75;;;21.80;63.70;;;;;;5114191;28;20138;-73
2022/07/08 06:52:56;;;;;;;2.40;0.80;;;21.80;62.60;;;;;;5112373;28;20508;-73
2022/07/08 06:55:22;;;;;;;1.00;0.65;;;21.90;63.00;;;;;;5112217;28;20063;-73
2022/07/08 06:57:48;;;;;;;0.73;0.73;;;21.90;63.20;;;;;;5112685;28;20527;-72
2022/07/08 07:00:14;;;;;;;1.08;0.70;;;21.90;63.50;;;;;;5113070;28;20016;-73
2022/07/08 07:02:40;;;;;;;2.92;0.90;;;22.00;63.40;;;;;;5113590;28;20037;-73
2022/07/08 07:05:07;;;;;;;2.80;0.80;;;22.00;63.20;;;;;;5113340;28;20108;-73
2022/07/08 07:07:33;;;;;;;0.88;0.88;;;22.10;63.10;;;;;;5113195;28;20031;-73
2022/07/08 07:09:58;;;;;;;3.03;0.90;;;22.10;62.90;;;;;;5113769;28;20035;-73
2022/07/08 07:12:24;;;;;;;3.88;1.02;;;22.10;62.60;;;;;;5113674;28;20046;-73
2022/07/08 07:14:51;;;;;;;1.05;0.73;;;22.20;62.70;;;;;;5113563;28;20039;-73
2022/07/08 07:17:20;;;;;;;2.05;0.80;;;22.20;62.60;;;;;;5113298;28;20101;-73
2022/07/08 07:19:47;;;;;;;3.42;0.90;;;22.30;62.20;;;;;;5113477;28;20038;-78
2022/07/08 07:22:14;;;;;;;5.28;0.90;;;22.30;61.20;;;;;;5113296;28;20497;-72
2022/07/08 07:24:40;;;;;;;1.42;0.50;;;22.40;60.80;;;;;;5113479;28;20024;-72
2022/07/08 07:27:05;;;;;;;1.05;0.77;;;22.40;60.60;;;;;;5113524;28;20035;-73
2022/07/08 07:29:31;;;;;;;1.75;0.80;;;22.50;60.40;;;;;;5113390;28;20024;-73
2022/07/08 07:31:57;;;;;;;1.13;0.82;;;22.50;61.30;;;;;;5113536;28;20100;-73
2022/07/08 07:34:23;;;;;;;3.35;0.80;;;22.60;61.20;;;;;;5113477;28;20476;-73
2022/07/08 07:36:48;;;;;;;0.80;0.70;;;22.60;60.30;;;;;;5113301;28;20040;-73
2022/07/08 07:39:14;;;;;;;2.75;0.63;;;22.60;59.40;;;;;;5113200;28;20519;-73
2022/07/08 07:41:40;;;;;;;0.80;0.70;;;22.60;59.80;;;;;;5113192;28;20539;-73
2022/07/08 07:44:06;;;;;;;0.75;0.70;;;22.70;59.90;;;;;;5113525;28;20024;-73
2022/07/08 07:46:32;;;;;;;0.70;0.70;;;22.70;59.50;;;;;;5113275;28;20044;-73
2022/07/08 07:48:58;;;;;;;1.48;0.80;;;22.80;59.50;;;;;;5113170;28;20035;-73
2022/07/08 07:51:24;;;;;;;3.75;0.90;;;22.80;59.10;;;;;;5113281;28;20096;-73
2022/07/08 07:53:50;;;;;;;1.52;0.70;;;22.90;59.40;;;;;;5113171;28;20023;-73
2022/07/08 07:56:16;;;;;;;1.13;0.80;;;22.90;58.60;;;;;;5113254;28;20039;-73
2022/07/08 07:58:41;;;;;;;0.95;0.50;;;22.90;58.00;;;;;;5113057;28;20031;-73
2022/07/08 08:01:07;;;;;;;1.42;0.80;;;22.90;58.20;;;;;;5113279;28;20386;-77
2022/07/08 08:03:33;;;;;;;1.35;0.80;;;23.00;58.70;;;;;;5113307;28;20032;-74
2022/07/08 08:06:00;;;;;;;0.80;0.60;;;23.00;58.30;;;;;;5116098;28;20035;-73
2022/07/08 08:08:26;;;;;;;2.50;0.73;;;23.10;58.10;;;;;;5117104;28;20110;-73
2022/07/08 08:10:52;;;;;;;2.33;0.77;;;23.10;58.10;;;;;;5116096;28;20075;-73
2022/07/08 08:13:19;;;;;;;1.00;0.60;;;23.20;59.20;;;;;;5115621;28;20040;-73
2022/07/08 08:15:45;;;;;;;2.55;0.73;;;23.30;58.60;;;;;;5116342;28;20039;-74
2022/07/08 08:18:10;;;;;;;1.33;0.70;;;23.30;58.30;;;;;;5115695;28;20066;-75
2022/07/08 08:20:36;;;;;;;1.20;0.60;;;23.40;58.20;;;;;;5116088;28;20529;-74
2022/07/08 08:23:03;;;;;;;2.22;0.80;;;23.40;57.60;;;;;;5116062;28;20440;-73
2022/07/08 08:25:28;;;;;;;0.88;0.68;;;23.50;58.10;;;;;;5116814;28;20048;-74
2022/07/08 08:27:56;;;;;;;2.47;0.80;;;23.50;58.00;;;;;;5115901;28;20035;-76
2022/07/08 08:30:22;;;;;;;2.70;0.60;;;23.60;57.70;;;;;;5115483;28;20440;-74
2022/07/08 08:32:48;;;;;;;0.65;0.65;;;23.60;56.80;;;;;;5115842;28;20103;-73
2022/07/08 08:35:14;;;;;;;1.63;0.63;;;23.70;55.70;;;;;;5116196;28;20441;-74
2022/07/08 08:37:40;;;;;;;4.32;0.70;;;23.70;56.10;;;;;;5115754;27;20031;-77
2022/07/08 08:40:08;;;;;;;5.50;0.60;;;23.80;56.80;;;;;;5114709;28;20477;-75
2022/07/08 08:42:34;;;;;;;2.10;0.70;;;23.80;57.30;;;;;;5111649;28;20028;-74
2022/07/08 08:45:02;;;;;;;3.13;0.60;;;23.90;57.50;;;;;;5114641;28;20520;-75
2022/07/08 08:47:29;;;;;;;2.88;0.80;;;24.00;57.80;;;;;;5115036;28;20020;-75
2022/07/08 08:49:56;;;;;;;0.98;0.80;;;24.10;58.20;;;;;;5115065;28;20548;-74
2022/07/08 08:52:26;;;;;;;1.20;0.70;;;24.10;57.30;;;;;;5115406;28;20114;-76
2022/07/08 08:54:53;;;;;;;1.95;0.70;;;24.20;55.70;;;;;;5114554;28;20497;-74
2022/07/08 08:57:20;;;;;;;1.98;0.70;;;24.20;56.30;;;;;;5114667;28;20032;-74
2022/07/08 08:59:46;;;;;;;1.83;0.77;;;24.20;56.50;;;;;;5112839;28;20032;-75
2022/07/08 09:02:12;;;;;;;0.95;0.60;;;24.20;56.00;;;;;;5114471;28;20485;-77
2022/07/08 09:04:39;;;;;;;1.60;0.60;;;24.20;56.50;;;;;;5113920;28;20043;-78
2022/07/08 09:07:05;;;;;;;1.45;0.57;;;24.20;56.40;;;;;;5115765;28;20023;-78
2022/07/08 09:09:31;;;;;;;0.93;0.52;;;24.20;56.40;;;;;;5115864;28;20035;-79
2022/07/08 09:11:56;;;;;;;8.50;1.10;;;24.20;56.30;;;;;;5114940;28;20394;-77
2022/07/08 09:14:23;;;;;;;5.68;0.75;;;24.30;56.00;;;;;;5113971;28;20106;-78
2022/07/08 09:17:17;;;;;;;10.50;1.45;;;24.30;58.60;;;;;;5113826;28;20050;-79
2022/07/08 09:19:46;;;;;;;5.32;0.80;;;24.20;59.00;;;;;;5113517;28;20385;-78
2022/07/08 09:22:12;;;;;;;1.60;0.70;;;24.30;57.60;;;;;;5115827;28;20034;-79
2022/07/08 09:24:41;;;;;;;0.60;0.50;;;24.30;57.30;;;;;;5115911;28;20039;-79
2022/07/08 09:27:10;;;;;;;1.23;0.50;;;24.40;57.30;;;;;;5114942;28;20032;-78
2022/07/08 09:29:39;;;;;;;4.45;0.70;;;24.60;56.70;;;;;;5115101;28;20109;-78
2022/07/08 09:32:15;;;;;;;1.27;0.57;;;24.70;55.70;;;;;;5114928;28;20046;-78
2022/07/08 09:34:42;;;;;;;1.40;0.50;;;24.70;55.00;;;;;;5115292;28;20031;-76
2022/07/08 09:37:13;;;;;;;0.85;0.60;;;24.80;53.10;;;;;;5115311;28;20181;-77
2022/07/08 09:39:39;;;;;;;1.15;0.60;;;24.80;52.10;;;;;;5115534;28;20112;-77
2022/07/08 09:42:09;;;;;;;2.53;0.40;;;24.90;52.50;;;;;;5115313;28;20059;-76
2022/07/08 09:44:36;;;;;;;3.60;0.57;;;24.90;53.00;;;;;;5115574;28;20036;-77
2022/07/08 09:47:10;;;;;;;0.57;0.40;;;25.00;53.40;;;;;;5115148;28;20023;-77
2022/07/08 09:49:38;;;;;;;1.17;0.40;;;25.10;53.50;;;;;;5115487;28;20110;-77
2022/07/08 09:52:04;;;;;;;0.95;0.50;;;25.20;53.00;;;;;;5115284;28;20097;-77
2022/07/08 09:54:30;;;;;;;0.50;0.40;;;25.20;52.30;;;;;;5114905;28;20028;-77
2022/07/08 09:57:02;;;;;;;2.17;0.40;;;25.30;52.40;;;;;;5114414;28;20027;-81
2022/07/08 09:59:29;;;;;;;0.40;0.35;;;25.30;51.90;;;;;;5115002;28;20027;-77
2022/07/08 10:01:55;;;;;;;0.77;0.40;;;25.40;52.30;;;;;;5114937;28;20032;-77
2022/07/08 10:04:23;;;;;;;0.93;0.40;;;25.50;50.40;;;;;;5114848;28;20554;-78
2022/07/08 10:06:55;;;;;;;0.52;0.30;;;25.60;49.80;;;;;;5114662;28;20079;-78
2022/07/08 10:09:22;;;;;;;1.33;0.80;;;25.60;50.20;;;;;;5114708;28;20434;-68
2022/07/08 10:11:49;;;;;;;4.18;0.40;;;25.60;50.60;;;;;;5114461;28;20051;-67
2022/07/08 10:14:16;;;;;;;3.63;0.50;;;25.70;51.40;;;;;;5114527;28;20097;-67
2022/07/08 10:16:45;;;;;;;1.10;0.40;;;25.70;52.20;;;;;;5114229;28;20131;-67
2022/07/08 10:19:20;;;;;;;1.08;0.30;;;25.80;51.60;;;;;;5114403;28;20394;-73
2022/07/08 10:21:53;;;;;;;1.55;0.40;;;25.90;51.10;;;;;;5114817;28;20036;-73
2022/07/08 10:24:24;;;;;;;0.50;0.50;;;26.00;51.10;;;;;;5114051;28;20435;-73
2022/07/08 10:26:50;;;;;;;0.50;0.50;;;26.10;50.30;;;;;;5114500;28;20062;-74
2022/07/08 10:29:16;;;;;;;2.20;0.40;;;26.30;50.70;;;;;;5114067;28;20031;-73
2022/07/08 10:31:47;;;;;;;1.08;0.50;;;26.30;50.50;;;;;;5114807;28;20054;-73
2022/07/08 10:34:20;;;;;;;1.23;0.40;;;26.40;49.40;;;;;;5114087;28;20060;-73
2022/07/08 10:36:47;;;;;;;1.17;0.45;;;26.40;50.00;;;;;;5114403;28;20100;-74
2022/07/08 10:39:13;;;;;;;1.80;0.40;;;26.50;50.20;;;;;;5114208;28;20084;-74
2022/07/08 10:41:40;;;;;;;3.38;0.50;;;26.60;50.30;;;;;;5114225;28;20043;-74
2022/07/08 10:44:08;;;;;;;0.75;0.30;;;26.70;48.40;;;;;;5114252;28;20032;-74
2022/07/08 10:46:35;;;;;;;1.35;0.50;;;26.70;47.60;;;;;;5114251;28;20062;-74
2022/07/08 10:49:01;;;;;;;0.85;0.50;;;26.80;48.40;;;;;;5114420;28;20024;-73
2022/07/08 10:51:28;;;;;;;1.55;0.32;;;26.90;48.60;;;;;;5113548;28;20046;-73
2022/07/08 10:53:58;;;;;;;0.50;0.40;;;26.90;48.90;;;;;;5114149;28;20031;-74
2022/07/08 10:56:56;;;;;;;0.50;0.40;;;27.00;47.70;;;;;;5113914;28;20039;-73
2022/07/08 10:59:29;;;;;;;0.73;0.40;;;27.00;47.40;;;;;;5113771;28;20048;-74
2022/07/08 11:02:16;;;;;;;3.47;0.52;;;26.90;47.50;;;;;;5113957;28;20028;-74
2022/07/08 11:04:47;;;;;;;1.38;0.35;;;26.80;48.50;;;;;;5113846;28;20455;-74
2022/07/08 11:07:27;;;;;;;3.58;0.50;;;26.90;47.70;;;;;;5113858;28;20509;-74
2022/07/08 11:09:54;;;;;;;0.98;0.40;;;26.90;47.60;;;;;;5113826;28;20027;-73
2022/07/08 11:12:27;;;;;;;0.82;0.43;;;27.00;46.80;;;;;;5113643;28;20051;-73
2022/07/08 11:14:57;;;;;;;1.88;0.60;;;27.00;46.80;;;;;;5110928;28;20042;-74
2022/07/08 11:17:42;;;;;;;4.45;1.08;;;27.00;48.00;;;;;;5110787;28;20066;-68
2022/07/08 11:20:11;;;;;;;0.70;0.47;;;27.00;47.80;;;;;;5113580;28;20126;-68
2022/07/08 11:22:39;;;;;;;1.20;0.50;;;27.10;48.10;;;;;;5113545;28;20031;-68
2022/07/08 11:25:07;;;;;;;1.02;0.50;;;27.10;47.50;;;;;;5113315;28;20031;-75
2022/07/08 11:27:33;;;;;;;1.65;0.28;;;27.20;46.60;;;;;;5113443;28;20474;-80
2022/07/08 11:30:01;;;;;;;1.13;0.40;;;27.30;47.00;;;;;;5112947;28;20041;-79
2022/07/08 11:32:27;;;;;;;0.98;0.38;;;27.40;47.60;;;;;;5113115;28;20031;-79
2022/07/08 11:34:55;;;;;;;1.10;0.43;;;27.40;47.30;;;;;;5113105;28;20057;-78
2022/07/08 11:37:21;;;;;;;0.38;0.22;;;27.40;47.50;;;;;;5113541;28;20042;-78
2022/07/08 11:39:48;;;;;;;1.48;0.43;;;27.30;47.30;;;;;;5109566;28;20528;-78
2022/07/08 11:42:15;;;;;;;1.42;0.30;;;27.20;47.20;;;;;;5110238;28;20058;-79
2022/07/08 11:44:45;;;;;;;1.05;0.40;;;27.20;47.40;;;;;;5111449;28;20032;-79
2022/07/08 11:47:17;;;;;;;2.35;0.30;;;27.10;47.60;;;;;;5112873;28;20114;-78
2022/07/08 11:49:43;;;;;;;;;;;27.00;47.90;;;;;;5113853;28;20039;-79
2022/07/08 11:52:09;;;;;;;1.05;0.47;;;27.00;47.80;;;;;;5113122;28;19964;-80
2022/07/08 11:54:35;;;;;;;1.75;0.30;;;26.90;47.90;;;;;;5112856;28;20485;-80
2022/07/08 11:57:04;;;;;;;0.68;0.40;;;26.90;47.80;;;;;;5112730;28;20066;-78
2022/07/08 11:59:34;;;;;;;0.60;0.50;;;26.80;47.50;;;;;;5112940;28;20072;-79
2022/07/08 12:02:02;;;;;;;0.40;0.32;;;26.80;48.10;;;;;;5112728;28;20047;-78
2022/07/08 12:04:28;;;;;;;0.70;0.60;;;26.80;48.40;;;;;;5113437;28;20035;-80
2022/07/08 12:07:01;;;;;;;0.85;0.40;;;26.80;48.40;;;;;;5112873;28;20032;-78
2022/07/08 12:09:29;;;;;;;1.45;0.45;;;27.00;49.00;;;;;;5112936;28;20042;-79
2022/07/08 12:11:57;;;;;;;1.08;0.38;;;27.10;48.10;;;;;;5111156;28;20047;-78
2022/07/08 12:14:23;;;;;;;0.40;0.40;;;27.20;48.30;;;;;;5113100;28;20031;-78
2022/07/08 12:16:51;;;;;;;1.38;0.40;;;27.30;47.00;;;;;;5112596;28;20123;-79
2022/07/08 12:19:34;;;;;;;1.45;0.30;;;27.40;47.00;;;;;;5112968;28;20027;-78
2022/07/08 12:22:03;;;;;;;4.25;0.40;;;27.50;45.20;;;;;;5113100;28;20035;-78
2022/07/08 12:24:40;;;;;;;1.33;0.30;;;27.60;45.10;;;;;;5112540;28;20093;-77
2022/07/08 12:27:10;;;;;;;1.50;0.40;;;27.70;44.70;;;;;;5111566;28;20374;-78
2022/07/08 12:29:38;;;;;;;0.30;0.30;;;27.80;45.50;;;;;;5112681;28;20038;-78
2022/07/08 12:32:04;;;;;;;1.45;0.40;;;27.90;45.70;;;;;;5112296;28;20047;-77
2022/07/08 12:34:30;;;;;;;1.55;0.40;;;28.00;45.00;;;;;;5112813;28;20040;-78
2022/07/08 12:37:21;;;;;;;2.60;0.40;;;28.10;44.10;;;;;;5112748;28;20032;-79
2022/07/08 12:39:47;;;;;;;2.67;0.32;;;28.10;43.60;;;;;;5112711;28;20085;-79
2022/07/08 12:42:23;;;;;;;0.85;0.30;;;28.20;42.50;;;;;;5112816;28;20042;-79
2022/07/08 12:44:49;;;;;;;6.40;0.40;;;28.20;42.70;;;;;;5112818;28;20028;-79
2022/07/08 12:47:15;;;;;;;3.47;0.40;;;28.30;43.20;;;;;;5112487;28;20035;-79